createdAt,value
2019-03-09T00:01:24.242Z,9.05
2019-03-09T00:03:53.446Z,8.23
2019-03-09T00:06:22.666Z,11.57
2019-03-09T00:08:51.938Z,14.13
2019-03-09T00:11:21.166Z,11.63
2019-03-09T00:13:50.372Z,10.05
2019-03-09T00:16:19.564Z,9.90
2019-03-09T00:18:48.994Z,11.97
2019-03-09T00:21:18.201Z,11.83
2019-03-09T00:24:12.424Z,11.03
2019-03-09T00:27:03.476Z,12.28
2019-03-09T00:29:43.995Z,10.93
2019-03-09T00:32:16.180Z,13.38
2019-03-09T00:34:45.364Z,9.93
2019-03-09T00:37:14.566Z,15.55
2019-03-09T00:39:43.807Z,10.20
2019-03-09T00:42:13.045Z,9.15
2019-03-09T00:44:42.243Z,11.65
2019-03-09T00:47:11.537Z,12.43
2019-03-09T00:49:40.741Z,7.95
2019-03-09T00:52:09.975Z,8.35
2019-03-09T00:54:39.175Z,8.88
2019-03-09T00:57:08.395Z,10.20
2019-03-09T00:59:37.593Z,10.98
2019-03-09T01:02:06.857Z,11.33
2019-03-09T01:04:36.069Z,11.90
2019-03-09T01:07:05.268Z,11.08
2019-03-09T01:09:34.501Z,9.40
2019-03-09T01:12:03.675Z,13.60
2019-03-09T01:14:32.917Z,8.38
2019-03-09T01:17:02.141Z,9.38
2019-03-09T01:19:31.362Z,11.35
2019-03-09T01:22:00.566Z,11.95
2019-03-09T01:24:29.996Z,12.70
2019-03-09T01:26:59.216Z,9.75
2019-03-09T01:29:28.492Z,9.60
2019-03-09T01:31:57.642Z,9.73
2019-03-09T01:34:26.829Z,9.10
2019-03-09T01:36:56.056Z,9.73
2019-03-09T01:39:25.264Z,9.80
2019-03-09T01:41:54.462Z,8.48
2019-03-09T01:44:23.682Z,8.83
2019-03-09T01:46:52.880Z,9.18
2019-03-09T01:49:22.088Z,10.28
2019-03-09T01:51:51.300Z,6.60
2019-03-09T01:54:20.499Z,9.00
2019-03-09T01:56:49.747Z,11.53
2019-03-09T01:59:19.000Z,9.45
2019-03-09T02:01:48.177Z,8.28
2019-03-09T02:04:17.379Z,10.45
2019-03-09T02:06:46.573Z,9.65
2019-03-09T02:09:15.917Z,13.55
2019-03-09T02:11:45.104Z,9.05
2019-03-09T02:14:14.310Z,12.65
2019-03-09T02:16:43.501Z,10.10
2019-03-09T02:19:12.695Z,13.48
2019-03-09T02:21:41.997Z,13.13
2019-03-09T02:24:11.177Z,10.75
2019-03-09T02:26:41.860Z,12.43
2019-03-09T02:29:11.084Z,12.43
2019-03-09T02:31:40.301Z,15.48
2019-03-09T02:34:09.563Z,10.53
2019-03-09T02:36:38.764Z,8.73
2019-03-09T02:39:20.569Z,11.00
2019-03-09T02:41:49.752Z,11.60
2019-03-09T02:44:18.994Z,14.30
2019-03-09T02:46:48.250Z,15.23
2019-03-09T02:49:17.505Z,9.85
2019-03-09T02:51:46.732Z,15.05
2019-03-09T02:54:15.954Z,11.08
2019-03-09T02:56:45.179Z,9.50
2019-03-09T02:59:14.353Z,8.88
2019-03-09T03:02:01.211Z,9.78
2019-03-09T03:04:30.477Z,10.60
2019-03-09T03:06:59.660Z,7.62
2019-03-09T03:09:28.871Z,5.72
2019-03-09T03:11:58.087Z,9.35
2019-03-09T03:14:27.306Z,6.30
2019-03-09T03:16:56.524Z,9.43
2019-03-09T03:19:25.730Z,10.50
2019-03-09T03:21:54.926Z,8.93
2019-03-09T03:24:24.102Z,7.58
2019-03-09T03:26:53.300Z,8.20
2019-03-09T03:29:22.530Z,4.37
2019-03-09T03:31:51.848Z,7.30
2019-03-09T03:34:21.118Z,7.55
2019-03-09T03:36:50.409Z,4.85
2019-03-09T03:39:19.629Z,5.90
2019-03-09T03:41:48.878Z,5.65
2019-03-09T03:44:18.093Z,5.47
2019-03-09T03:46:47.281Z,5.53
2019-03-09T03:49:16.484Z,5.17
2019-03-09T03:51:45.697Z,6.15
2019-03-09T03:54:14.961Z,3.02
2019-03-09T03:56:44.164Z,7.20
2019-03-09T03:59:13.381Z,3.27
2019-03-09T04:01:42.589Z,4.85
2019-03-09T04:04:11.815Z,5.00
2019-03-09T04:06:41.159Z,5.08
2019-03-09T04:09:10.459Z,4.65
2019-03-09T04:11:39.699Z,3.42
2019-03-09T04:14:08.918Z,2.45
2019-03-09T04:16:38.135Z,4.30
2019-03-09T04:19:07.344Z,5.00
2019-03-09T04:21:36.539Z,2.75
2019-03-09T04:24:05.758Z,4.40
2019-03-09T04:26:34.976Z,2.33
2019-03-09T04:29:04.154Z,2.10
2019-03-09T04:31:33.373Z,2.08
2019-03-09T04:34:02.780Z,3.27
2019-03-09T04:36:34.302Z,2.55
2019-03-09T04:39:05.078Z,2.65
2019-03-09T04:41:34.305Z,2.52
2019-03-09T04:44:03.483Z,2.35
2019-03-09T04:46:32.779Z,1.55
2019-03-09T04:49:01.987Z,1.62
2019-03-09T04:51:31.207Z,3.17
2019-03-09T04:54:00.408Z,1.67
2019-03-09T04:56:29.606Z,2.27
2019-03-09T04:58:58.813Z,1.80
2019-03-09T05:01:28.000Z,1.87
2019-03-09T05:04:29.216Z,2.83
2019-03-09T05:06:58.380Z,3.35
2019-03-09T05:10:08.227Z,2.12
2019-03-09T05:12:37.398Z,2.30
2019-03-09T05:15:08.510Z,2.02
2019-03-09T05:17:37.711Z,1.95
2019-03-09T05:20:07.664Z,2.45
2019-03-09T05:22:36.858Z,2.00
2019-03-09T05:25:06.168Z,1.60
2019-03-09T05:27:35.357Z,1.90
2019-03-09T05:30:04.914Z,1.90
2019-03-09T05:32:34.113Z,2.20
2019-03-09T05:35:03.331Z,1.90
2019-03-09T05:37:32.513Z,2.05
2019-03-09T05:40:01.691Z,1.80
2019-03-09T05:42:32.649Z,2.35
2019-03-09T05:45:01.851Z,2.10
2019-03-09T05:47:31.067Z,1.87
2019-03-09T05:50:00.277Z,1.90
2019-03-09T05:52:33.567Z,2.50
2019-03-09T05:55:09.783Z,3.08
2019-03-09T05:57:39.030Z,2.67
2019-03-09T06:00:08.802Z,3.80
2019-03-09T06:02:38.039Z,3.15
2019-03-09T06:05:42.493Z,2.87
2019-03-09T06:08:11.715Z,2.77
2019-03-09T06:10:40.907Z,5.42
2019-03-09T06:13:10.093Z,3.33
2019-03-09T06:15:39.294Z,3.80
2019-03-09T06:18:08.504Z,5.58
2019-03-09T06:20:37.701Z,6.53
2019-03-09T06:23:06.920Z,4.87
2019-03-09T06:25:38.484Z,5.12
2019-03-09T06:28:07.018Z,5.20
2019-03-09T06:30:36.316Z,6.33
2019-03-09T06:33:36.991Z,5.87
2019-03-09T06:37:02.208Z,7.08
2019-03-09T06:39:46.020Z,6.45
2019-03-09T06:42:45.698Z,6.97
2019-03-09T06:45:16.468Z,9.13
2019-03-09T06:47:45.792Z,7.28
2019-03-09T06:50:17.024Z,4.50
2019-03-09T06:52:46.246Z,4.70
2019-03-09T06:55:15.807Z,3.22
2019-03-09T06:57:45.013Z,3.33
2019-03-09T07:00:27.973Z,3.77
2019-03-09T07:02:57.207Z,4.25
2019-03-09T07:05:26.437Z,5.95
2019-03-09T07:07:55.700Z,4.28
2019-03-09T07:10:24.909Z,4.60
2019-03-09T07:12:54.150Z,4.58
2019-03-09T07:15:31.291Z,5.95
2019-03-09T07:18:08.935Z,4.12
2019-03-09T07:20:38.231Z,5.92
2019-03-09T07:23:07.442Z,5.12
2019-03-09T07:25:36.653Z,5.67
2019-03-09T07:28:10.554Z,4.65
2019-03-09T07:30:39.736Z,6.92
2019-03-09T07:33:09.032Z,6.67
2019-03-09T07:35:38.395Z,7.35
2019-03-09T07:38:07.626Z,8.85
2019-03-09T07:40:39.876Z,4.92
2019-03-09T07:43:09.130Z,8.40
2019-03-09T07:45:38.434Z,9.33
2019-03-09T07:48:07.676Z,9.63
2019-03-09T07:50:36.902Z,7.75
2019-03-09T07:53:06.101Z,8.43
2019-03-09T07:55:35.319Z,11.97
2019-03-09T07:58:05.902Z,7.62
2019-03-09T08:00:35.085Z,8.55
2019-03-09T08:03:04.410Z,9.30
2019-03-09T08:05:33.659Z,10.60
2019-03-09T08:08:02.900Z,9.18
2019-03-09T08:10:32.145Z,6.97
2019-03-09T08:13:01.367Z,10.05
2019-03-09T08:15:30.608Z,11.55
2019-03-09T08:17:59.797Z,6.72
2019-03-09T08:20:29.056Z,7.33
2019-03-09T08:22:58.361Z,8.98
2019-03-09T08:25:27.589Z,7.15
2019-03-09T08:27:56.797Z,9.78
2019-03-09T08:30:26.049Z,10.40
2019-03-09T08:32:55.280Z,11.22
2019-03-09T08:35:24.512Z,10.93
2019-03-09T08:37:53.755Z,13.55
2019-03-09T08:40:23.021Z,9.28
2019-03-09T08:42:52.238Z,9.33
2019-03-09T08:45:21.537Z,8.80
2019-03-09T08:47:52.660Z,11.55
2019-03-09T08:50:22.491Z,11.93
2019-03-09T08:52:51.815Z,11.55
2019-03-09T08:55:21.155Z,10.05
2019-03-09T08:57:50.350Z,13.48
2019-03-09T09:00:22.245Z,12.07
2019-03-09T09:02:51.502Z,12.63
2019-03-09T09:05:20.910Z,8.45
2019-03-09T09:07:50.184Z,10.88
2019-03-09T09:10:19.396Z,11.40
2019-03-09T09:12:48.859Z,10.43
2019-03-09T09:15:18.174Z,12.35
2019-03-09T09:17:47.450Z,14.23
2019-03-09T09:20:17.980Z,14.18
2019-03-09T09:22:47.195Z,11.20
2019-03-09T09:25:16.507Z,11.80
2019-03-09T09:27:46.017Z,13.00
2019-03-09T09:30:17.901Z,12.13
2019-03-09T09:32:47.167Z,13.80
2019-03-09T09:35:16.665Z,14.68
2019-03-09T09:37:46.226Z,15.72
2019-03-09T09:40:18.198Z,14.25
2019-03-09T09:42:47.433Z,14.13
2019-03-09T09:45:16.847Z,17.80
2019-03-09T09:47:46.075Z,16.02
2019-03-09T09:50:15.548Z,19.57
2019-03-09T09:52:44.911Z,13.88
2019-03-09T09:55:15.093Z,16.35
2019-03-09T09:57:44.364Z,17.05
2019-03-09T10:00:19.800Z,16.73
2019-03-09T10:02:49.046Z,18.00
2019-03-09T10:05:18.323Z,17.37
2019-03-09T10:07:47.548Z,17.02
2019-03-09T10:10:18.034Z,16.52
2019-03-09T10:12:47.302Z,17.20
2019-03-09T10:15:20.752Z,14.87
2019-03-09T10:17:49.974Z,15.78
2019-03-09T10:20:19.198Z,11.88
2019-03-09T10:22:48.470Z,15.83
2019-03-09T10:25:17.699Z,16.23
2019-03-09T10:27:46.918Z,15.55
2019-03-09T10:30:18.288Z,16.10
2019-03-09T10:32:47.597Z,14.20
2019-03-09T10:35:16.953Z,14.90
2019-03-09T10:37:46.232Z,12.10
2019-03-09T10:40:16.088Z,11.38
2019-03-09T10:42:45.463Z,15.05
2019-03-09T10:45:15.201Z,14.40
2019-03-09T10:47:44.526Z,14.30
2019-03-09T10:50:14.511Z,9.13
2019-03-09T10:52:43.904Z,12.33
2019-03-09T10:55:15.515Z,7.50
2019-03-09T10:57:45.216Z,9.15
2019-03-09T11:00:19.961Z,12.00
2019-03-09T11:05:17.526Z,9.90
2019-03-09T11:07:46.775Z,10.48
2019-03-09T11:10:16.014Z,9.60
2019-03-09T11:12:45.263Z,9.93
2019-03-09T11:15:14.476Z,9.70
2019-03-09T11:17:43.728Z,10.03
2019-03-09T11:20:13.938Z,10.78
2019-03-09T11:22:43.149Z,9.78
2019-03-09T11:25:12.654Z,9.88
2019-03-09T11:27:41.881Z,10.50
2019-03-09T11:30:32.941Z,8.38
2019-03-09T11:33:02.160Z,9.80
2019-03-09T11:35:32.880Z,9.65
2019-03-09T11:38:02.387Z,11.15
2019-03-09T11:40:31.735Z,9.65
2019-03-09T11:43:00.970Z,9.70
2019-03-09T11:45:30.214Z,7.12
2019-03-09T11:47:59.461Z,9.60
2019-03-09T11:50:28.651Z,9.78
2019-03-09T11:52:57.885Z,7.87
2019-03-09T11:55:29.321Z,7.42
2019-03-09T11:57:58.780Z,9.28
2019-03-09T12:00:30.641Z,8.88
2019-03-09T12:02:59.857Z,9.50
2019-03-09T12:05:29.108Z,8.65
2019-03-09T12:07:58.361Z,8.55
2019-03-09T12:10:27.592Z,7.80
2019-03-09T12:12:56.839Z,6.95
2019-03-09T12:15:26.217Z,8.08
2019-03-09T12:17:55.475Z,7.10
2019-03-09T12:20:27.382Z,5.75
2019-03-09T12:23:01.186Z,6.75
2019-03-09T12:25:27.593Z,9.48
2019-03-09T12:27:56.820Z,9.53
2019-03-09T12:30:26.074Z,5.53
2019-03-09T12:32:55.410Z,6.85
2019-03-09T12:35:24.628Z,7.97
2019-03-09T12:37:53.862Z,8.20
2019-03-09T12:40:23.097Z,7.72
2019-03-09T12:42:52.358Z,3.67
2019-03-09T12:45:21.586Z,5.50
2019-03-09T12:47:50.808Z,4.72
2019-03-09T12:50:20.201Z,4.28
2019-03-09T12:52:49.428Z,5.87
2019-03-09T12:55:18.864Z,3.47
2019-03-09T12:57:48.133Z,3.87
2019-03-09T13:00:18.426Z,3.80
2019-03-09T13:02:47.693Z,4.08
2019-03-09T13:05:17.689Z,3.35
2019-03-09T13:07:47.063Z,3.98
2019-03-09T13:10:16.862Z,4.10
2019-03-09T13:12:46.295Z,5.50
2019-03-09T13:15:16.449Z,5.10
2019-03-09T13:17:45.689Z,7.20
2019-03-09T13:20:15.191Z,4.55
2019-03-09T13:22:44.425Z,4.47
2019-03-09T13:25:13.995Z,4.55
2019-03-09T13:27:43.692Z,6.42
2019-03-09T13:30:18.066Z,5.42
2019-03-09T13:32:47.355Z,4.05
2019-03-09T13:35:16.585Z,4.28
2019-03-09T13:37:46.011Z,5.25
2019-03-09T13:40:16.116Z,5.65
2019-03-09T13:42:45.542Z,4.22
2019-03-09T13:45:14.908Z,6.97
2019-03-09T13:47:44.160Z,4.60
2019-03-09T13:50:13.620Z,5.15
2019-03-09T13:52:42.858Z,6.10
2019-03-09T13:55:12.601Z,4.30
2019-03-09T13:57:42.125Z,4.70
2019-03-09T14:00:13.376Z,5.75
2019-03-09T14:02:42.657Z,7.12
2019-03-09T14:05:11.888Z,6.35
2019-03-09T14:07:41.180Z,7.25
2019-03-09T14:10:11.415Z,7.42
2019-03-09T14:12:40.833Z,5.62
2019-03-09T14:15:12.163Z,6.50
2019-03-09T14:17:41.365Z,6.45
2019-03-09T14:20:11.114Z,4.78
2019-03-09T14:22:40.420Z,7.55
2019-03-09T14:25:10.125Z,5.17
2019-03-09T14:27:39.403Z,7.42
2019-03-09T14:30:10.863Z,4.90
2019-03-09T14:32:41.677Z,5.70
2019-03-09T14:35:11.213Z,7.10
2019-03-09T14:37:40.536Z,6.62
2019-03-09T14:40:10.916Z,4.80
2019-03-09T14:42:40.307Z,5.20
2019-03-09T14:45:13.308Z,7.70
2019-03-09T14:47:42.551Z,5.72
2019-03-09T14:50:11.925Z,4.22
2019-03-09T14:52:41.236Z,4.40
2019-03-09T14:55:11.066Z,6.00
2019-03-09T14:57:40.363Z,6.22
2019-03-09T15:00:13.000Z,5.78
2019-03-09T15:02:42.512Z,5.72
2019-03-09T15:05:11.815Z,9.48
2019-03-09T15:07:41.074Z,6.87
2019-03-09T15:10:10.846Z,6.50
2019-03-09T15:12:40.094Z,11.57
2019-03-09T15:15:10.456Z,6.65
2019-03-09T15:17:39.856Z,9.15
2019-03-09T15:20:10.155Z,7.35
2019-03-09T15:22:39.442Z,6.53
2019-03-09T15:25:09.672Z,29.57
2019-03-09T15:27:38.898Z,8.93
2019-03-09T15:30:13.198Z,8.30
2019-03-09T15:32:42.959Z,11.28
2019-03-09T15:35:12.434Z,7.45
2019-03-09T15:37:41.672Z,9.25
2019-03-09T15:40:11.474Z,9.90
2019-03-09T15:42:40.786Z,10.45
2019-03-09T15:45:10.996Z,11.83
2019-03-09T15:47:40.278Z,18.37
2019-03-09T15:50:10.622Z,16.37
2019-03-09T15:52:39.897Z,16.40
2019-03-09T15:55:09.409Z,14.80
2019-03-09T15:57:38.682Z,15.60
2019-03-09T16:00:11.555Z,14.23
2019-03-09T16:02:40.822Z,14.70
2019-03-09T16:05:10.233Z,20.60
2019-03-09T16:07:39.445Z,17.73
2019-03-09T16:10:10.079Z,15.70
2019-03-09T16:12:40.212Z,20.35
2019-03-09T16:15:10.438Z,18.05
2019-03-09T16:17:39.692Z,15.23
2019-03-09T16:20:11.346Z,20.97
2019-03-09T16:22:43.501Z,6.53
2019-03-09T16:25:12.797Z,6.97
2019-03-09T16:27:42.072Z,10.75
2019-03-09T16:30:14.135Z,8.75
2019-03-09T16:32:43.408Z,7.10
2019-03-09T16:35:12.754Z,13.28
2019-03-09T16:37:42.951Z,7.30
2019-03-09T16:40:12.544Z,5.12
2019-03-09T16:42:41.774Z,5.85
2019-03-09T16:45:11.736Z,10.60
2019-03-09T16:47:40.981Z,1.65
2019-03-09T16:50:10.871Z,6.20
2019-03-09T16:52:40.171Z,7.62
2019-03-09T16:55:09.690Z,7.47
2019-03-09T16:57:38.957Z,3.98
2019-03-09T17:00:11.214Z,6.47
2019-03-09T17:02:40.426Z,2.85
2019-03-09T17:05:09.675Z,11.78
2019-03-09T17:07:38.948Z,3.40
2019-03-09T17:10:08.639Z,4.45
2019-03-09T17:12:37.961Z,7.83
2019-03-09T17:15:08.043Z,8.15
2019-03-09T17:17:37.313Z,4.45
2019-03-09T17:20:07.841Z,10.08
2019-03-09T17:22:37.067Z,7.65
2019-03-09T17:25:07.167Z,7.22
2019-03-09T17:27:36.532Z,3.75
2019-03-09T17:30:06.752Z,17.60
2019-03-09T17:32:36.136Z,5.00
2019-03-09T17:35:05.435Z,5.20
2019-03-09T17:37:34.883Z,4.28
2019-03-09T17:40:04.807Z,10.85
2019-03-09T17:42:34.382Z,5.67
2019-03-09T17:45:05.075Z,7.28
2019-03-09T17:47:36.133Z,5.35
2019-03-09T17:50:05.764Z,6.83
2019-03-09T17:52:34.970Z,6.53
2019-03-09T17:55:04.616Z,4.65
2019-03-09T17:57:33.839Z,4.53
2019-03-09T18:00:03.148Z,7.00
2019-03-09T18:02:32.470Z,5.37
2019-03-09T18:05:01.703Z,4.72
2019-03-09T18:07:31.082Z,5.20
2019-03-09T18:10:00.397Z,8.23
2019-03-09T18:12:29.578Z,5.17
2019-03-09T18:14:58.895Z,7.05
2019-03-09T18:17:28.113Z,4.75
2019-03-09T18:20:04.794Z,6.08
2019-03-09T18:22:34.026Z,5.30
2019-03-09T18:25:03.382Z,5.47
2019-03-09T18:27:32.644Z,6.80
2019-03-09T18:30:01.858Z,5.42
2019-03-09T18:32:31.116Z,5.33
2019-03-09T18:35:00.359Z,6.35
2019-03-09T18:37:29.801Z,8.35
2019-03-09T18:39:59.015Z,6.12
2019-03-09T18:42:28.290Z,5.72
2019-03-09T18:44:57.548Z,7.92
2019-03-09T18:47:26.825Z,4.83
2019-03-09T18:49:56.023Z,6.95
2019-03-09T18:52:25.268Z,6.40
2019-03-09T18:54:54.499Z,4.87
2019-03-09T18:57:23.708Z,5.40
2019-03-09T18:59:52.977Z,6.15
2019-03-09T19:02:22.225Z,9.03
2019-03-09T19:04:51.568Z,6.97
2019-03-09T19:07:20.849Z,6.05
2019-03-09T19:09:50.107Z,6.22
2019-03-09T19:12:19.481Z,3.30
2019-03-09T19:14:49.628Z,4.05
2019-03-09T19:17:19.156Z,4.35
2019-03-09T19:19:48.400Z,7.78
2019-03-09T19:22:17.854Z,5.25
2019-03-09T19:24:47.355Z,4.25
2019-03-09T19:27:16.695Z,4.05
2019-03-09T19:29:46.108Z,7.85
2019-03-09T19:32:15.518Z,7.17
2019-03-09T19:34:44.737Z,5.95
2019-03-09T19:37:14.043Z,4.65
2019-03-09T19:39:43.278Z,6.37
2019-03-09T19:42:12.847Z,7.03
2019-03-09T19:44:42.124Z,5.35
2019-03-09T19:47:12.163Z,3.87
2019-03-09T19:49:41.610Z,3.85
2019-03-09T19:52:10.890Z,4.42
2019-03-09T19:54:40.516Z,6.37
2019-03-09T19:57:09.867Z,5.78
2019-03-09T19:59:39.776Z,6.35
2019-03-09T20:02:09.146Z,2.52
2019-03-09T20:04:38.817Z,6.58
2019-03-09T20:07:08.087Z,5.03
2019-03-09T20:09:37.422Z,7.25
2019-03-09T20:12:06.636Z,5.85
2019-03-09T20:14:35.828Z,8.50
2019-03-09T20:17:05.156Z,8.70
2019-03-09T20:19:34.522Z,8.50
2019-03-09T20:22:04.011Z,5.25
2019-03-09T20:24:33.254Z,6.40
2019-03-09T20:27:02.738Z,5.62
2019-03-09T20:29:32.194Z,5.25
2019-03-09T20:32:01.490Z,6.00
2019-03-09T20:34:30.795Z,7.92
2019-03-09T20:37:00.040Z,7.60
2019-03-09T20:39:29.417Z,9.18
2019-03-09T20:41:58.647Z,7.15
2019-03-09T20:44:28.072Z,7.03
2019-03-09T20:46:57.446Z,7.55
2019-03-09T20:49:26.745Z,6.67
2019-03-09T20:51:56.033Z,8.25
2019-03-09T20:54:25.273Z,6.87
2019-03-09T20:56:54.595Z,9.03
2019-03-09T20:59:24.034Z,7.65
2019-03-09T21:01:53.465Z,6.30
2019-03-09T21:04:23.003Z,5.72
2019-03-09T21:06:52.293Z,10.15
2019-03-09T21:09:21.548Z,5.53
2019-03-09T21:11:51.029Z,7.47
2019-03-09T21:14:20.284Z,4.72
2019-03-09T21:16:49.754Z,6.33
2019-03-09T21:19:18.941Z,5.80
2019-03-09T21:21:48.200Z,8.33
2019-03-09T21:24:17.719Z,9.93
2019-03-09T21:26:46.986Z,9.60
2019-03-09T21:29:16.224Z,9.60
2019-03-09T21:31:45.540Z,10.30
2019-03-09T21:34:14.962Z,7.30
2019-03-09T21:36:44.214Z,10.25
2019-03-09T21:39:13.469Z,9.75
2019-03-09T21:41:42.864Z,12.68
2019-03-09T21:44:12.103Z,9.38
2019-03-09T21:46:41.305Z,13.93
2019-03-09T21:49:11.164Z,9.63
2019-03-09T21:51:40.505Z,12.15
2019-03-09T21:54:09.977Z,10.95
2019-03-09T21:56:39.272Z,11.50
2019-03-09T21:59:08.732Z,6.90
2019-03-09T22:01:37.953Z,6.80
2019-03-09T22:04:07.193Z,11.90
2019-03-09T22:06:36.537Z,11.93
2019-03-09T22:09:07.125Z,12.15
2019-03-09T22:11:36.339Z,9.53
2019-03-09T22:14:05.564Z,11.33
2019-03-09T22:16:34.831Z,8.95
2019-03-09T22:19:04.027Z,7.97
2019-03-09T22:21:33.272Z,7.72
2019-03-09T22:24:02.572Z,13.98
2019-03-09T22:26:31.778Z,13.85
2019-03-09T22:29:01.224Z,9.55
2019-03-09T22:31:30.415Z,10.10
2019-03-09T22:33:59.702Z,10.40
2019-03-09T22:36:28.956Z,10.10
2019-03-09T22:38:58.168Z,9.63
2019-03-09T22:41:27.444Z,7.50
2019-03-09T22:43:56.721Z,10.60
2019-03-09T22:46:25.938Z,9.03
2019-03-09T22:48:55.151Z,8.23
2019-03-09T22:51:24.368Z,10.95
2019-03-09T22:53:53.590Z,8.03
2019-03-09T22:56:22.796Z,11.55
2019-03-09T22:58:51.995Z,7.80
2019-03-09T23:01:21.825Z,11.10
2019-03-09T23:03:51.037Z,8.18
2019-03-09T23:06:20.402Z,9.58
2019-03-09T23:08:49.702Z,8.70
2019-03-09T23:11:19.005Z,8.40
2019-03-09T23:13:48.252Z,8.93
2019-03-09T23:16:20.353Z,7.47
2019-03-09T23:18:49.562Z,7.50
2019-03-09T23:21:18.812Z,10.50
2019-03-09T23:23:48.058Z,59.38
2019-03-09T23:26:17.361Z,64.22
2019-03-09T23:28:48.470Z,80.12
2019-03-09T23:31:17.770Z,22.37
2019-03-09T23:33:46.962Z,13.78
2019-03-09T23:36:16.207Z,10.30
2019-03-09T23:38:45.436Z,11.35
2019-03-09T23:41:14.657Z,14.87
2019-03-09T23:43:43.849Z,14.23
2019-03-09T23:46:13.072Z,13.43
2019-03-09T23:48:42.308Z,10.58
2019-03-09T23:51:11.549Z,10.25
2019-03-09T23:53:40.852Z,15.20
2019-03-09T23:56:10.074Z,12.10
2019-03-09T23:58:39.310Z,12.45
